createdAt,value
2022-12-01T00:00:32.427Z,80.40
2022-12-01T00:04:09.817Z,87.50
2022-12-01T00:07:49.755Z,75.90
2022-12-01T00:11:25.217Z,89.80
2022-12-01T00:15:03.145Z,88.70
2022-12-01T00:18:41.051Z,80.10
2022-12-01T00:22:18.315Z,68.80
2022-12-01T00:26:02.902Z,80.30
2022-12-01T00:29:33.754Z,78.60
2022-12-01T00:33:11.664Z,77.80
2022-12-01T00:36:49.776Z,83.40
2022-12-01T00:40:26.866Z,87.30
2022-12-01T00:44:05.184Z,88.80
2022-12-01T00:47:42.278Z,86.20
2022-12-01T00:51:19.978Z,87.10
2022-12-01T00:54:57.685Z,71.00
2022-12-01T00:58:35.387Z,76.70
2022-12-01T01:02:13.736Z,83.90
2022-12-01T01:05:50.694Z,82.50
2022-12-01T01:09:28.705Z,84.50
2022-12-01T01:13:06.408Z,81.00
2022-12-01T01:16:43.924Z,88.40
2022-12-01T01:20:21.713Z,76.00
2022-12-01T01:23:59.417Z,79.70
2022-12-01T01:27:36.918Z,80.00
2022-12-01T01:31:18.604Z,80.00
2022-12-01T01:34:52.326Z,75.90
2022-12-01T01:38:30.439Z,85.10
2022-12-01T01:42:13.059Z,78.60
2022-12-01T01:45:45.484Z,76.90
2022-12-01T01:49:23.245Z,86.30
2022-12-01T01:53:10.978Z,84.10
2022-12-01T01:56:38.551Z,78.40
2022-12-01T02:00:19.631Z,67.90
2022-12-01T02:03:55.034Z,84.20
2022-12-01T02:07:32.319Z,81.20
2022-12-01T02:11:48.695Z,82.20
2022-12-01T02:15:17.996Z,82.70
2022-12-01T02:18:52.237Z,91.90
2022-12-01T02:22:30.229Z,72.20
2022-12-01T02:26:01.742Z,68.80
2022-12-01T02:29:39.085Z,69.30
2022-12-01T02:33:19.350Z,74.00
2022-12-01T02:36:58.592Z,77.50
2022-12-01T02:40:36.191Z,83.50
2022-12-01T02:44:11.849Z,82.70
2022-12-01T02:47:41.461Z,81.80
2022-12-01T02:51:24.689Z,77.90
2022-12-01T02:54:54.731Z,77.10
2022-12-01T02:58:31.913Z,77.60
2022-12-01T03:02:33.677Z,76.80
2022-12-01T03:06:14.661Z,78.70
2022-12-01T03:09:56.152Z,79.30
2022-12-01T03:13:29.704Z,76.00
2022-12-01T03:16:44.353Z,82.90
2022-12-01T03:20:28.981Z,74.10
2022-12-01T03:24:09.235Z,78.40
2022-12-01T03:28:00.656Z,85.90
2022-12-01T03:31:20.278Z,84.20
2022-12-01T03:34:58.834Z,78.40
2022-12-01T03:38:33.568Z,78.00
2022-12-01T03:42:40.610Z,81.10
2022-12-01T03:46:07.865Z,74.60
2022-12-01T03:49:29.192Z,78.30
2022-12-01T03:53:19.515Z,82.10
2022-12-01T03:56:49.411Z,79.90
2022-12-01T04:00:23.008Z,77.90
2022-12-01T04:04:12.701Z,76.90
2022-12-01T04:07:39.491Z,70.70
2022-12-01T04:11:33.449Z,82.00
2022-12-01T04:14:52.606Z,82.10
2022-12-01T04:18:30.312Z,75.10
2022-12-01T04:22:07.913Z,79.90
2022-12-01T04:25:45.475Z,73.90
2022-12-01T04:29:23.525Z,75.90
2022-12-01T04:33:01.028Z,77.00
2022-12-01T04:36:38.730Z,79.60
2022-12-01T04:40:16.639Z,75.70
2022-12-01T04:43:54.856Z,70.50
2022-12-01T04:47:32.047Z,70.20
2022-12-01T04:51:09.852Z,74.40
2022-12-01T04:54:47.251Z,69.20
2022-12-01T04:58:24.966Z,76.90
2022-12-01T05:02:04.382Z,75.80
2022-12-01T05:05:40.181Z,75.00
2022-12-01T05:09:20.115Z,72.90
2022-12-01T05:12:57.921Z,68.70
2022-12-01T05:16:34.300Z,71.60
2022-12-01T05:20:38.835Z,64.30
2022-12-01T05:23:49.192Z,63.50
2022-12-01T05:27:26.793Z,70.90
2022-12-01T05:31:04.748Z,76.30
2022-12-01T05:34:42.200Z,72.30
2022-12-01T05:38:20.828Z,64.90
2022-12-01T05:41:57.712Z,62.70
2022-12-01T05:45:36.179Z,77.20
2022-12-01T05:49:13.017Z,80.60
2022-12-01T05:52:50.825Z,78.20
2022-12-01T05:56:28.380Z,77.20
2022-12-01T06:00:07.257Z,72.90
2022-12-01T06:03:43.903Z,84.30
2022-12-01T06:07:23.596Z,86.50
2022-12-01T06:10:59.242Z,83.40
2022-12-01T06:14:36.948Z,77.90
2022-12-01T06:18:14.548Z,74.50
2022-12-01T06:21:54.711Z,79.70
2022-12-01T06:25:30.062Z,70.10
2022-12-01T06:29:07.765Z,83.70
2022-12-01T06:32:45.366Z,74.40
2022-12-01T06:36:23.069Z,80.10
2022-12-01T06:40:01.295Z,82.30
2022-12-01T06:43:38.791Z,68.50
2022-12-01T06:47:16.181Z,80.90
2022-12-01T06:51:00.192Z,73.30
2022-12-01T06:54:31.692Z,77.30
2022-12-01T06:58:09.191Z,92.10
2022-12-01T07:01:47.162Z,80.80
2022-12-01T07:05:24.703Z,76.10
2022-12-01T07:09:02.924Z,83.80
2022-12-01T07:12:40.931Z,75.00
2022-12-01T07:16:17.864Z,71.50
2022-12-01T07:19:55.726Z,71.00
2022-12-01T07:23:33.838Z,75.50
2022-12-01T07:27:10.930Z,76.50
2022-12-01T07:30:48.776Z,82.90
2022-12-01T07:34:26.297Z,227.50
2022-12-01T07:38:04.041Z,415.60
2022-12-01T07:41:41.642Z,96.90
2022-12-01T07:45:19.347Z,104.10
2022-12-01T07:48:58.456Z,89.30
2022-12-01T07:52:34.753Z,81.60
2022-12-01T07:56:14.347Z,88.60
2022-12-01T07:59:50.837Z,93.60
2022-12-01T08:03:27.868Z,86.40
2022-12-01T08:07:05.469Z,81.10
2022-12-01T08:10:43.172Z,106.10
2022-12-01T08:14:20.979Z,197.50
2022-12-01T08:18:01.039Z,450.20
2022-12-01T08:21:37.737Z,119.60
2022-12-01T08:25:14.502Z,106.70
2022-12-01T08:28:51.898Z,187.20
2022-12-01T08:32:29.910Z,103.10
2022-12-01T08:36:08.054Z,119.90
2022-12-01T08:39:44.807Z,143.70
2022-12-01T08:43:49.467Z,138.20
2022-12-01T08:47:00.102Z,125.10
2022-12-01T08:50:37.853Z,141.20
2022-12-01T08:54:16.750Z,152.10
2022-12-01T08:57:53.226Z,134.00
2022-12-01T09:01:32.747Z,162.80
2022-12-01T09:05:09.045Z,112.90
2022-12-01T09:08:47.114Z,136.10
2022-12-01T09:12:24.144Z,104.40
2022-12-01T09:16:07.046Z,122.30
2022-12-01T09:19:39.653Z,134.50
2022-12-01T09:23:17.255Z,123.60
2022-12-01T09:26:56.700Z,129.30
2022-12-01T09:30:40.011Z,110.40
2022-12-01T09:34:17.945Z,131.10
2022-12-01T09:37:48.072Z,121.40
2022-12-01T09:41:30.180Z,117.50
2022-12-01T09:45:05.149Z,87.60
2022-12-01T09:48:46.303Z,83.50
2022-12-01T09:52:27.838Z,87.60
2022-12-01T09:56:04.859Z,74.00
2022-12-01T09:59:41.724Z,84.20
2022-12-01T10:03:30.638Z,113.20
2022-12-01T10:06:57.350Z,79.50
2022-12-01T10:10:36.215Z,77.80
2022-12-01T10:14:19.457Z,108.30
2022-12-01T10:17:42.717Z,79.00
2022-12-01T10:21:22.984Z,89.30
2022-12-01T10:25:11.434Z,84.00
2022-12-01T10:29:02.864Z,76.90
2022-12-01T10:32:23.566Z,87.30
2022-12-01T10:35:51.717Z,80.90
2022-12-01T10:39:37.492Z,87.80
2022-12-01T10:43:10.234Z,247.30
2022-12-01T10:46:50.287Z,347.80
2022-12-01T10:50:30.761Z,374.10
2022-12-01T10:54:08.072Z,189.20
2022-12-01T10:57:37.872Z,264.20
2022-12-01T11:01:24.001Z,196.60
2022-12-01T11:04:57.888Z,165.60
2022-12-01T11:08:41.662Z,127.20
2022-12-01T11:12:16.369Z,110.90
2022-12-01T11:16:00.034Z,129.10
2022-12-01T11:19:28.785Z,108.20
2022-12-01T11:23:10.298Z,85.10
2022-12-01T11:26:38.993Z,89.30
2022-12-01T11:30:31.647Z,84.70
2022-12-01T11:33:56.342Z,114.50
2022-12-01T11:41:28.957Z,93.10
2022-12-01T11:45:22.536Z,87.20
2022-12-01T11:48:37.394Z,92.70
2022-12-01T11:52:28.110Z,113.90
2022-12-01T11:55:47.998Z,103.10
2022-12-01T11:59:29.390Z,97.20
2022-12-01T12:03:34.189Z,98.00
2022-12-01T12:07:15.619Z,97.70
2022-12-01T12:10:51.925Z,80.30
2022-12-01T12:14:28.979Z,71.90
2022-12-01T12:17:57.077Z,83.00
2022-12-01T12:21:39.064Z,77.90
2022-12-01T12:25:11.754Z,76.70
2022-12-01T12:28:57.337Z,75.20
2022-12-01T12:32:33.932Z,64.60
2022-12-01T12:36:19.505Z,79.20
2022-12-01T12:39:42.780Z,72.30
2022-12-01T12:43:39.219Z,81.60
2022-12-01T12:47:04.630Z,92.60
2022-12-01T12:50:45.100Z,81.10
2022-12-01T12:54:21.097Z,82.50
2022-12-01T12:57:55.168Z,77.40
2022-12-01T13:01:37.007Z,147.80
2022-12-01T13:05:16.632Z,81.00
2022-12-01T13:08:41.997Z,85.00
2022-12-01T13:12:25.080Z,99.10
2022-12-01T13:15:54.730Z,116.90
2022-12-01T13:19:33.658Z,108.10
2022-12-01T13:23:14.912Z,93.10
2022-12-01T13:26:48.935Z,83.10
2022-12-01T13:30:26.329Z,84.50
2022-12-01T13:34:02.682Z,92.50
2022-12-01T13:37:39.075Z,91.40
2022-12-01T13:41:39.617Z,88.30
2022-12-01T13:44:59.841Z,88.20
2022-12-01T13:48:52.154Z,90.70
2022-12-01T13:52:23.514Z,87.00
2022-12-01T13:56:04.124Z,103.60
2022-12-01T14:00:03.394Z,103.20
2022-12-01T14:03:22.398Z,86.50
2022-12-01T14:07:15.822Z,88.00
2022-12-01T14:10:38.073Z,92.10
2022-12-01T14:14:25.963Z,92.20
2022-12-01T14:18:20.105Z,87.30
2022-12-01T14:22:04.568Z,89.80
2022-12-01T14:25:23.539Z,104.40
2022-12-01T14:28:54.993Z,95.40
2022-12-01T14:32:29.929Z,69.80
2022-12-01T14:36:34.258Z,77.20
2022-12-01T14:39:52.145Z,68.10
2022-12-01T14:43:45.664Z,78.50
2022-12-01T14:47:11.191Z,69.70
2022-12-01T14:50:49.525Z,63.80
2022-12-01T14:54:26.252Z,69.30
2022-12-01T14:58:04.508Z,57.70
2022-12-01T15:01:36.273Z,58.80
2022-12-01T15:05:19.612Z,48.10
2022-12-01T15:09:31.453Z,47.50
2022-12-01T15:12:34.035Z,50.80
2022-12-01T15:16:19.326Z,53.10
2022-12-01T15:19:52.214Z,52.70
2022-12-01T15:23:28.171Z,49.00
2022-12-01T15:27:24.267Z,55.10
2022-12-01T15:30:45.589Z,49.50
2022-12-01T15:34:24.562Z,37.10
2022-12-01T15:37:59.562Z,44.10
2022-12-01T15:41:39.825Z,43.70
2022-12-01T15:45:22.138Z,40.60
2022-12-01T15:49:07.027Z,45.10
2022-12-01T15:52:29.559Z,51.50
2022-12-01T15:56:10.042Z,46.40
2022-12-01T15:59:47.120Z,38.60
2022-12-01T16:03:22.169Z,48.20
2022-12-01T16:07:04.677Z,54.10
2022-12-01T16:10:37.778Z,47.90
2022-12-01T16:14:24.868Z,73.20
2022-12-01T16:17:54.103Z,50.50
2022-12-01T16:21:44.606Z,84.90
2022-12-01T16:25:22.094Z,87.70
2022-12-01T16:28:45.782Z,74.60
2022-12-01T16:32:42.335Z,57.50
2022-12-01T16:36:03.749Z,61.60
2022-12-01T16:39:39.303Z,77.30
2022-12-01T16:43:22.396Z,62.30
2022-12-01T16:46:54.220Z,53.30
2022-12-01T16:50:31.940Z,51.90
2022-12-01T16:54:10.511Z,54.40
2022-12-01T16:57:47.969Z,45.60
2022-12-01T17:01:25.694Z,45.50
2022-12-01T17:05:02.822Z,46.30
2022-12-01T17:08:40.938Z,50.70
2022-12-01T17:12:18.230Z,56.90
2022-12-01T17:15:56.499Z,52.10
2022-12-01T17:19:33.639Z,46.70
2022-12-01T17:23:11.956Z,49.10
2022-12-01T17:26:49.290Z,58.40
2022-12-01T17:30:27.660Z,67.30
2022-12-01T17:34:04.353Z,63.90
2022-12-01T17:37:44.109Z,52.00
2022-12-01T17:44:22.653Z,54.20
2022-12-01T17:48:00.019Z,57.30
2022-12-01T17:51:56.543Z,42.30
2022-12-01T17:55:26.206Z,46.30
2022-12-01T17:59:03.706Z,49.70
2022-12-01T18:02:41.571Z,47.30
2022-12-01T18:06:20.141Z,46.90
2022-12-01T18:09:56.920Z,52.20
2022-12-01T18:14:06.539Z,48.50
2022-12-01T18:17:52.369Z,46.30
2022-12-01T18:21:29.642Z,40.10
2022-12-01T18:25:08.738Z,45.90
2022-12-01T18:28:45.081Z,42.10
2022-12-01T18:32:22.470Z,42.60
2022-12-01T18:36:00.482Z,52.10
2022-12-01T18:39:38.595Z,55.60
2022-12-01T18:43:15.683Z,53.50
2022-12-01T18:46:53.277Z,52.50
2022-12-01T18:50:31.429Z,43.00
2022-12-01T18:54:12.790Z,42.40
2022-12-01T18:57:46.294Z,34.50
2022-12-01T19:01:53.585Z,35.10
2022-12-01T19:05:24.845Z,37.50
2022-12-01T19:09:04.996Z,37.90
2022-12-01T19:12:41.247Z,54.00
2022-12-01T19:16:20.103Z,35.50
2022-12-01T19:19:54.844Z,41.30
2022-12-01T19:23:33.264Z,41.70
2022-12-01T19:27:10.354Z,35.80
2022-12-01T19:30:48.443Z,34.30
2022-12-01T19:34:26.171Z,39.50
2022-12-01T19:38:03.471Z,57.70
2022-12-01T19:41:41.178Z,39.40
2022-12-01T19:45:18.672Z,46.80
2022-12-01T19:49:01.370Z,47.20
2022-12-01T19:52:36.227Z,39.00
2022-12-01T19:56:12.324Z,45.20
2022-12-01T19:59:49.412Z,52.60
2022-12-01T20:03:27.193Z,61.80
2022-12-01T20:07:05.306Z,41.70
2022-12-01T20:10:49.118Z,45.60
2022-12-01T20:14:20.304Z,44.40
2022-12-01T20:17:58.009Z,64.40
2022-12-01T20:21:42.353Z,64.70
2022-12-01T20:25:13.517Z,45.80
2022-12-01T20:28:52.654Z,38.60
2022-12-01T20:32:29.438Z,43.80
2022-12-01T20:36:08.168Z,52.60
2022-12-01T20:39:44.441Z,48.50
2022-12-01T20:43:21.938Z,41.70
2022-12-01T20:46:59.845Z,52.60
2022-12-01T20:50:38.619Z,39.40
2022-12-01T20:54:32.460Z,47.70
2022-12-01T20:58:05.939Z,46.30
2022-12-01T21:01:40.927Z,44.10
2022-12-01T21:05:18.506Z,51.30
2022-12-01T21:08:56.516Z,55.60
2022-12-01T21:12:53.882Z,53.60
2022-12-01T21:17:43.172Z,42.50
2022-12-01T21:21:31.770Z,45.40
2022-12-01T21:25:23.052Z,67.20
2022-12-01T21:29:23.349Z,234.40
2022-12-01T21:33:28.497Z,57.40
2022-12-01T21:37:24.532Z,42.40
2022-12-01T21:41:26.934Z,40.40
2022-12-01T21:45:17.725Z,35.40
2022-12-01T21:49:01.266Z,26.50
2022-12-01T21:52:46.138Z,32.50
2022-12-01T21:56:31.781Z,38.80
2022-12-01T22:02:49.127Z,45.50
2022-12-01T22:06:39.476Z,53.20
2022-12-01T22:10:59.061Z,46.50
2022-12-01T22:14:41.588Z,65.10
2022-12-01T22:18:29.729Z,63.40
2022-12-01T22:22:18.423Z,82.00
2022-12-01T22:26:01.317Z,61.20
2022-12-01T22:29:46.292Z,54.50
2022-12-01T22:33:29.729Z,55.20
2022-12-01T22:37:25.047Z,41.90
2022-12-01T22:41:13.696Z,52.70
2022-12-01T22:44:59.808Z,57.40
2022-12-01T22:48:49.186Z,50.40
2022-12-01T22:52:31.091Z,48.30
2022-12-01T22:56:39.922Z,43.50
2022-12-01T23:00:23.568Z,47.60
2022-12-01T23:04:28.407Z,53.80
2022-12-01T23:08:16.133Z,60.40
2022-12-01T23:12:10.744Z,56.70
2022-12-01T23:15:56.351Z,58.00
2022-12-01T23:19:38.885Z,48.40
2022-12-01T23:23:27.309Z,51.60
2022-12-01T23:27:09.827Z,61.30
2022-12-01T23:30:57.015Z,63.90
2022-12-01T23:34:39.571Z,58.30
2022-12-01T23:38:29.459Z,62.20
2022-12-01T23:42:12.753Z,55.20
2022-12-01T23:46:07.802Z,61.80
2022-12-01T23:49:59.843Z,60.50
2022-12-01T23:53:43.079Z,52.50
2022-12-01T23:57:25.338Z,59.80
